Terminal Aerodrome Forecast
Issued by NWS Wilmington, OH

Current Version | Previous Version | Graphics & Text | Print | Product List | Glossary On
Versions: 1 2 3 4 5 6 7 8 9 10 11 12 13 14 15 16 17 18 19 20 21 22 23 24 25 26 27 28 29 30 31
000
FTUS41 KILN 161135
TAFCVG
TAF
KCVG 161135Z 1612/1718 10005KT 1SM BR OVC002
     FM161500 12006KT 3SM BR OVC008
     FM161800 14008KT P6SM OVC012
     FM162200 14006KT 2SM BR VCSH OVC008
     FM170600 18009KT 3SM BR VCSH OVC004
     FM171300 19012KT P6SM VCSH BKN015=

USA.gov is the U.S. government's official web portal to all federal, state and local government web resources and services.